sensor_id;sensor_type;location;lat;lon;timestamp;temperature;humidity
6956;DHT22;50345;51.136;16.886;2023-04-29T00:01:51;13.00;99.90
6956;DHT22;50345;51.136;16.886;2023-04-29T00:04:16;13.00;99.90
6956;DHT22;50345;51.136;16.886;2023-04-29T00:06:42;13.00;99.90
6956;DHT22;50345;51.136;16.886;2023-04-29T00:09:07;13.00;99.90
6956;DHT22;50345;51.136;16.886;2023-04-29T00:11:33;13.00;99.90
6956;DHT22;50345;51.136;16.886;2023-04-29T00:13:58;13.00;99.90
6956;DHT22;50345;51.136;16.886;2023-04-29T00:16:24;12.90;99.90
6956;DHT22;50345;51.136;16.886;2023-04-29T00:18:50;12.90;99.90
6956;DHT22;50345;51.136;16.886;2023-04-29T00:21:15;12.90;99.90
6956;DHT22;50345;51.136;16.886;2023-04-29T00:23:41;12.90;99.90
6956;DHT22;50345;51.136;16.886;2023-04-29T00:26:07;12.90;99.90
6956;DHT22;50345;51.136;16.886;2023-04-29T00:28:32;12.80;99.90
6956;DHT22;50345;51.136;16.886;2023-04-29T00:30:58;12.80;99.90
6956;DHT22;50345;51.136;16.886;2023-04-29T00:33:24;12.80;99.90
6956;DHT22;50345;51.136;16.886;2023-04-29T00:35:49;12.80;99.90
6956;DHT22;50345;51.136;16.886;2023-04-29T00:38:15;12.80;99.90
6956;DHT22;50345;51.136;16.886;2023-04-29T00:40:41;12.70;99.90
6956;DHT22;50345;51.136;16.886;2023-04-29T00:43:08;12.70;99.90
6956;DHT22;50345;51.136;16.886;2023-04-29T00:45:33;12.70;99.90
6956;DHT22;50345;51.136;16.886;2023-04-29T00:47:59;12.60;99.90
6956;DHT22;50345;51.136;16.886;2023-04-29T00:50:24;12.60;99.90
6956;DHT22;50345;51.136;16.886;2023-04-29T00:52:50;12.60;99.90
6956;DHT22;50345;51.136;16.886;2023-04-29T00:55:17;12.60;99.90
6956;DHT22;50345;51.136;16.886;2023-04-29T00:57:43;12.60;99.90
6956;DHT22;50345;51.136;16.886;2023-04-29T01:00:08;12.60;99.90
6956;DHT22;50345;51.136;16.886;2023-04-29T01:02:34;12.60;99.90
6956;DHT22;50345;51.136;16.886;2023-04-29T01:05:00;12.50;99.90
6956;DHT22;50345;51.136;16.886;2023-04-29T01:10:09;12.50;99.90
6956;DHT22;50345;51.136;16.886;2023-04-29T01:12:38;12.50;99.90
6956;DHT22;50345;51.136;16.886;2023-04-29T01:17:49;12.40;99.90
6956;DHT22;50345;51.136;16.886;2023-04-29T01:20:16;12.40;99.90
6956;DHT22;50345;51.136;16.886;2023-04-29T01:22:42;12.40;99.90
6956;DHT22;50345;51.136;16.886;2023-04-29T01:25:08;12.40;99.90
6956;DHT22;50345;51.136;16.886;2023-04-29T01:41:50;12.40;99.90
6956;DHT22;50345;51.136;16.886;2023-04-29T01:44:23;12.30;99.90
6956;DHT22;50345;51.136;16.886;2023-04-29T01:46:52;12.30;99.90
6956;DHT22;50345;51.136;16.886;2023-04-29T01:49:24;12.30;99.90
6956;DHT22;50345;51.136;16.886;2023-04-29T01:51:49;12.30;99.90
6956;DHT22;50345;51.136;16.886;2023-04-29T01:54:15;12.30;99.90
6956;DHT22;50345;51.136;16.886;2023-04-29T01:56:41;12.30;99.90
6956;DHT22;50345;51.136;16.886;2023-04-29T01:59:06;12.30;99.90
6956;DHT22;50345;51.136;16.886;2023-04-29T02:01:32;12.30;99.90
6956;DHT22;50345;51.136;16.886;2023-04-29T02:03:58;12.30;99.90
6956;DHT22;50345;51.136;16.886;2023-04-29T02:06:24;12.30;99.90
6956;DHT22;50345;51.136;16.886;2023-04-29T02:08:51;12.30;99.90
6956;DHT22;50345;51.136;16.886;2023-04-29T02:11:16;12.30;99.90
6956;DHT22;50345;51.136;16.886;2023-04-29T02:13:42;12.40;99.90
6956;DHT22;50345;51.136;16.886;2023-04-29T02:16:13;12.40;99.90
6956;DHT22;50345;51.136;16.886;2023-04-29T02:18:39;12.40;99.90
6956;DHT22;50345;51.136;16.886;2023-04-29T02:21:05;12.40;99.90
6956;DHT22;50345;51.136;16.886;2023-04-29T02:23:32;12.30;99.90
6956;DHT22;50345;51.136;16.886;2023-04-29T02:25:58;12.30;99.90
6956;DHT22;50345;51.136;16.886;2023-04-29T02:28:24;12.30;99.90
6956;DHT22;50345;51.136;16.886;2023-04-29T02:30:49;12.30;99.90
6956;DHT22;50345;51.136;16.886;2023-04-29T02:33:16;12.30;99.90
6956;DHT22;50345;51.136;16.886;2023-04-29T02:35:43;12.30;99.90
6956;DHT22;50345;51.136;16.886;2023-04-29T02:38:08;12.30;99.90
6956;DHT22;50345;51.136;16.886;2023-04-29T02:40:39;12.30;99.90
6956;DHT22;50345;51.136;16.886;2023-04-29T02:43:05;12.30;99.90
6956;DHT22;50345;51.136;16.886;2023-04-29T02:45:30;12.30;99.90
6956;DHT22;50345;51.136;16.886;2023-04-29T02:47:56;12.20;99.90
6956;DHT22;50345;51.136;16.886;2023-04-29T02:50:21;12.20;99.90
6956;DHT22;50345;51.136;16.886;2023-04-29T02:52:49;12.10;99.90
6956;DHT22;50345;51.136;16.886;2023-04-29T02:55:15;12.10;99.90
6956;DHT22;50345;51.136;16.886;2023-04-29T02:57:41;12.00;99.90
6956;DHT22;50345;51.136;16.886;2023-04-29T03:00:07;12.00;99.90
6956;DHT22;50345;51.136;16.886;2023-04-29T03:02:34;12.00;99.90
6956;DHT22;50345;51.136;16.886;2023-04-29T03:05:00;12.10;99.90
6956;DHT22;50345;51.136;16.886;2023-04-29T03:07:25;12.10;99.90
6956;DHT22;50345;51.136;16.886;2023-04-29T03:09:52;12.10;99.90
6956;DHT22;50345;51.136;16.886;2023-04-29T03:12:19;12.10;99.90
6956;DHT22;50345;51.136;16.886;2023-04-29T03:14:44;12.00;99.90
6956;DHT22;50345;51.136;16.886;2023-04-29T03:17:10;11.90;99.90
6956;DHT22;50345;51.136;16.886;2023-04-29T03:19:36;11.90;99.90
6956;DHT22;50345;51.136;16.886;2023-04-29T03:22:02;11.80;99.90
6956;DHT22;50345;51.136;16.886;2023-04-29T03:24:27;11.80;99.90
6956;DHT22;50345;51.136;16.886;2023-04-29T03:26:53;11.80;99.90
6956;DHT22;50345;51.136;16.886;2023-04-29T03:29:19;11.70;99.90
6956;DHT22;50345;51.136;16.886;2023-04-29T03:31:45;11.60;99.90
6956;DHT22;50345;51.136;16.886;2023-04-29T03:34:11;11.60;99.90
6956;DHT22;50345;51.136;16.886;2023-04-29T03:36:39;11.60;99.90
6956;DHT22;50345;51.136;16.886;2023-04-29T03:39:04;11.50;99.90
6956;DHT22;50345;51.136;16.886;2023-04-29T03:41:30;11.50;99.90
6956;DHT22;50345;51.136;16.886;2023-04-29T03:43:56;11.50;99.90
6956;DHT22;50345;51.136;16.886;2023-04-29T03:46:25;11.50;99.90
6956;DHT22;50345;51.136;16.886;2023-04-29T03:48:51;11.50;99.90
6956;DHT22;50345;51.136;16.886;2023-04-29T03:51:17;11.50;99.90
6956;DHT22;50345;51.136;16.886;2023-04-29T03:53:43;11.50;99.90
6956;DHT22;50345;51.136;16.886;2023-04-29T03:56:09;11.50;99.90
6956;DHT22;50345;51.136;16.886;2023-04-29T03:58:34;11.40;99.90
6956;DHT22;50345;51.136;16.886;2023-04-29T04:01:00;11.40;99.90
6956;DHT22;50345;51.136;16.886;2023-04-29T04:03:26;11.30;99.90
6956;DHT22;50345;51.136;16.886;2023-04-29T04:05:52;11.30;99.90
6956;DHT22;50345;51.136;16.886;2023-04-29T04:08:18;11.30;99.90
6956;DHT22;50345;51.136;16.886;2023-04-29T04:10:44;11.20;99.90
6956;DHT22;50345;51.136;16.886;2023-04-29T04:13:09;11.30;99.90
6956;DHT22;50345;51.136;16.886;2023-04-29T04:15:35;11.30;99.90
6956;DHT22;50345;51.136;16.886;2023-04-29T04:18:01;11.40;99.90
6956;DHT22;50345;51.136;16.886;2023-04-29T04:20:26;11.40;99.90
6956;DHT22;50345;51.136;16.886;2023-04-29T04:22:52;11.50;99.90
6956;DHT22;50345;51.136;16.886;2023-04-29T04:25:19;11.50;99.90
6956;DHT22;50345;51.136;16.886;2023-04-29T04:27:44;11.60;99.90
6956;DHT22;50345;51.136;16.886;2023-04-29T04:30:10;11.70;99.90
6956;DHT22;50345;51.136;16.886;2023-04-29T04:32:36;11.70;99.90
6956;DHT22;50345;51.136;16.886;2023-04-29T04:35:03;11.80;99.90
6956;DHT22;50345;51.136;16.886;2023-04-29T04:37:29;11.90;99.90
6956;DHT22;50345;51.136;16.886;2023-04-29T04:39:55;12.00;99.90
6956;DHT22;50345;51.136;16.886;2023-04-29T04:42:21;12.00;99.90
6956;DHT22;50345;51.136;16.886;2023-04-29T04:44:47;12.10;99.90
6956;DHT22;50345;51.136;16.886;2023-04-29T04:47:13;12.10;99.90
6956;DHT22;50345;51.136;16.886;2023-04-29T04:49:38;12.10;99.90
6956;DHT22;50345;51.136;16.886;2023-04-29T04:52:04;12.10;99.90
6956;DHT22;50345;51.136;16.886;2023-04-29T04:54:29;12.10;99.90
6956;DHT22;50345;51.136;16.886;2023-04-29T04:56:56;12.10;99.90
6956;DHT22;50345;51.136;16.886;2023-04-29T04:59:21;12.20;99.90
6956;DHT22;50345;51.136;16.886;2023-04-29T05:01:47;12.20;99.90
6956;DHT22;50345;51.136;16.886;2023-04-29T05:04:12;12.20;99.90
6956;DHT22;50345;51.136;16.886;2023-04-29T05:06:39;12.20;99.90
6956;DHT22;50345;51.136;16.886;2023-04-29T05:09:05;12.20;99.90
6956;DHT22;50345;51.136;16.886;2023-04-29T05:11:31;12.20;99.90
6956;DHT22;50345;51.136;16.886;2023-04-29T05:13:56;12.20;99.90
6956;DHT22;50345;51.136;16.886;2023-04-29T05:16:22;12.30;99.90
6956;DHT22;50345;51.136;16.886;2023-04-29T05:18:48;12.40;99.90
6956;DHT22;50345;51.136;16.886;2023-04-29T05:21:13;12.50;99.90
6956;DHT22;50345;51.136;16.886;2023-04-29T05:23:39;12.60;99.90
6956;DHT22;50345;51.136;16.886;2023-04-29T05:26:04;12.70;99.90
6956;DHT22;50345;51.136;16.886;2023-04-29T05:28:30;12.80;99.90
6956;DHT22;50345;51.136;16.886;2023-04-29T05:30:56;12.80;99.90
6956;DHT22;50345;51.136;16.886;2023-04-29T05:33:21;13.00;99.90
6956;DHT22;50345;51.136;16.886;2023-04-29T05:35:47;13.10;99.90
6956;DHT22;50345;51.136;16.886;2023-04-29T05:38:12;13.40;99.90
6956;DHT22;50345;51.136;16.886;2023-04-29T05:40:38;13.60;99.90
6956;DHT22;50345;51.136;16.886;2023-04-29T05:43:04;13.70;99.90
6956;DHT22;50345;51.136;16.886;2023-04-29T05:45:30;14.00;99.90
6956;DHT22;50345;51.136;16.886;2023-04-29T05:47:55;14.00;99.90
6956;DHT22;50345;51.136;16.886;2023-04-29T05:50:21;14.20;99.90
6956;DHT22;50345;51.136;16.886;2023-04-29T05:52:47;14.30;99.90
6956;DHT22;50345;51.136;16.886;2023-04-29T05:55:13;14.50;99.90
6956;DHT22;50345;51.136;16.886;2023-04-29T05:57:38;14.50;99.90
6956;DHT22;50345;51.136;16.886;2023-04-29T06:00:04;14.50;99.90
6956;DHT22;50345;51.136;16.886;2023-04-29T06:02:31;14.60;99.90
6956;DHT22;50345;51.136;16.886;2023-04-29T06:04:57;14.60;99.90
6956;DHT22;50345;51.136;16.886;2023-04-29T06:07:22;14.50;99.90
6956;DHT22;50345;51.136;16.886;2023-04-29T06:09:49;14.40;99.90
6956;DHT22;50345;51.136;16.886;2023-04-29T06:12:14;14.40;99.90
6956;DHT22;50345;51.136;16.886;2023-04-29T06:14:40;14.30;99.90
6956;DHT22;50345;51.136;16.886;2023-04-29T06:17:06;14.10;99.90
6956;DHT22;50345;51.136;16.886;2023-04-29T06:19:31;14.00;99.90
6956;DHT22;50345;51.136;16.886;2023-04-29T06:21:58;13.80;99.90
6956;DHT22;50345;51.136;16.886;2023-04-29T06:24:24;13.70;99.90
6956;DHT22;50345;51.136;16.886;2023-04-29T06:26:49;13.70;99.90
6956;DHT22;50345;51.136;16.886;2023-04-29T06:29:15;13.60;99.90
6956;DHT22;50345;51.136;16.886;2023-04-29T06:31:41;13.70;99.90
6956;DHT22;50345;51.136;16.886;2023-04-29T06:34:06;13.60;99.90
6956;DHT22;50345;51.136;16.886;2023-04-29T06:36:32;13.60;99.90
6956;DHT22;50345;51.136;16.886;2023-04-29T06:38:58;13.50;99.90
6956;DHT22;50345;51.136;16.886;2023-04-29T06:41:23;13.50;99.90
6956;DHT22;50345;51.136;16.886;2023-04-29T06:43:49;13.40;99.90
6956;DHT22;50345;51.136;16.886;2023-04-29T06:46:15;13.40;99.90
6956;DHT22;50345;51.136;16.886;2023-04-29T06:48:40;13.30;99.90
6956;DHT22;50345;51.136;16.886;2023-04-29T06:51:06;13.20;99.90
6956;DHT22;50345;51.136;16.886;2023-04-29T06:53:32;13.10;99.90
6956;DHT22;50345;51.136;16.886;2023-04-29T06:55:58;13.00;99.90
6956;DHT22;50345;51.136;16.886;2023-04-29T06:58:23;13.00;99.90
6956;DHT22;50345;51.136;16.886;2023-04-29T07:00:50;13.00;99.90
6956;DHT22;50345;51.136;16.886;2023-04-29T07:03:17;12.90;99.90
6956;DHT22;50345;51.136;16.886;2023-04-29T07:05:43;13.00;99.90
6956;DHT22;50345;51.136;16.886;2023-04-29T07:08:11;13.00;99.90
6956;DHT22;50345;51.136;16.886;2023-04-29T07:10:37;13.00;99.90
6956;DHT22;50345;51.136;16.886;2023-04-29T07:13:03;13.10;99.90
6956;DHT22;50345;51.136;16.886;2023-04-29T07:15:32;13.20;99.90
6956;DHT22;50345;51.136;16.886;2023-04-29T07:17:58;13.20;99.90
6956;DHT22;50345;51.136;16.886;2023-04-29T07:20:25;13.20;99.90
6956;DHT22;50345;51.136;16.886;2023-04-29T07:22:51;13.20;99.90
6956;DHT22;50345;51.136;16.886;2023-04-29T07:25:17;13.20;99.90
6956;DHT22;50345;51.136;16.886;2023-04-29T07:27:42;13.20;99.90
6956;DHT22;50345;51.136;16.886;2023-04-29T07:30:08;13.10;99.90
6956;DHT22;50345;51.136;16.886;2023-04-29T07:32:34;13.20;99.90
6956;DHT22;50345;51.136;16.886;2023-04-29T07:35:00;13.20;99.90
6956;DHT22;50345;51.136;16.886;2023-04-29T07:37:25;13.30;99.90
6956;DHT22;50345;51.136;16.886;2023-04-29T07:39:51;13.30;99.90
6956;DHT22;50345;51.136;16.886;2023-04-29T07:42:17;13.30;99.90
6956;DHT22;50345;51.136;16.886;2023-04-29T07:44:43;13.30;99.90
6956;DHT22;50345;51.136;16.886;2023-04-29T07:47:10;13.40;99.90
6956;DHT22;50345;51.136;16.886;2023-04-29T07:49:36;13.40;99.90
6956;DHT22;50345;51.136;16.886;2023-04-29T07:52:04;13.40;99.90
6956;DHT22;50345;51.136;16.886;2023-04-29T07:54:29;13.40;99.90
6956;DHT22;50345;51.136;16.886;2023-04-29T07:56:57;13.50;99.90
6956;DHT22;50345;51.136;16.886;2023-04-29T07:59:23;13.40;99.90
6956;DHT22;50345;51.136;16.886;2023-04-29T08:01:48;13.50;99.90
6956;DHT22;50345;51.136;16.886;2023-04-29T08:04:14;13.40;99.90
6956;DHT22;50345;51.136;16.886;2023-04-29T08:06:40;13.40;99.90
6956;DHT22;50345;51.136;16.886;2023-04-29T08:09:06;13.50;99.90
6956;DHT22;50345;51.136;16.886;2023-04-29T08:11:32;13.40;99.90
6956;DHT22;50345;51.136;16.886;2023-04-29T08:13:57;13.40;99.90
6956;DHT22;50345;51.136;16.886;2023-04-29T08:16:24;13.40;99.90
6956;DHT22;50345;51.136;16.886;2023-04-29T08:18:51;13.40;99.90
6956;DHT22;50345;51.136;16.886;2023-04-29T08:21:17;13.50;99.90
6956;DHT22;50345;51.136;16.886;2023-04-29T08:23:43;13.50;99.90
6956;DHT22;50345;51.136;16.886;2023-04-29T08:26:10;13.50;99.90
6956;DHT22;50345;51.136;16.886;2023-04-29T08:28:37;13.60;99.90
6956;DHT22;50345;51.136;16.886;2023-04-29T08:31:03;13.60;99.90
6956;DHT22;50345;51.136;16.886;2023-04-29T08:33:34;13.70;99.90
6956;DHT22;50345;51.136;16.886;2023-04-29T08:36:01;13.80;99.90
6956;DHT22;50345;51.136;16.886;2023-04-29T08:38:28;13.90;99.90
6956;DHT22;50345;51.136;16.886;2023-04-29T08:40:54;13.90;99.90
6956;DHT22;50345;51.136;16.886;2023-04-29T08:43:21;14.10;99.90
6956;DHT22;50345;51.136;16.886;2023-04-29T08:45:48;14.10;99.90
6956;DHT22;50345;51.136;16.886;2023-04-29T08:48:15;14.30;99.90
6956;DHT22;50345;51.136;16.886;2023-04-29T08:50:41;14.40;99.90
6956;DHT22;50345;51.136;16.886;2023-04-29T08:53:08;14.50;99.90
6956;DHT22;50345;51.136;16.886;2023-04-29T08:55:35;14.70;99.90
6956;DHT22;50345;51.136;16.886;2023-04-29T08:58:01;14.90;99.90
6956;DHT22;50345;51.136;16.886;2023-04-29T09:00:27;15.10;99.90
6956;DHT22;50345;51.136;16.886;2023-04-29T09:02:56;15.20;99.90
6956;DHT22;50345;51.136;16.886;2023-04-29T09:05:23;15.50;99.90
6956;DHT22;50345;51.136;16.886;2023-04-29T09:07:50;16.70;99.90
6956;DHT22;50345;51.136;16.886;2023-04-29T09:10:17;17.80;99.90
6956;DHT22;50345;51.136;16.886;2023-04-29T09:12:43;19.00;99.90
6956;DHT22;50345;51.136;16.886;2023-04-29T09:15:09;19.20;99.90
6956;DHT22;50345;51.136;16.886;2023-04-29T09:17:41;19.70;99.90
6956;DHT22;50345;51.136;16.886;2023-04-29T09:20:28;20.20;99.90
6956;DHT22;50345;51.136;16.886;2023-04-29T09:23:02;20.30;99.90
6956;DHT22;50345;51.136;16.886;2023-04-29T09:25:29;20.30;99.90
6956;DHT22;50345;51.136;16.886;2023-04-29T09:27:55;20.30;99.90
6956;DHT22;50345;51.136;16.886;2023-04-29T09:30:22;20.30;99.90
6956;DHT22;50345;51.136;16.886;2023-04-29T09:33:04;19.90;99.90
6956;DHT22;50345;51.136;16.886;2023-04-29T09:35:30;19.60;99.90
6956;DHT22;50345;51.136;16.886;2023-04-29T09:38:10;19.40;99.90
6956;DHT22;50345;51.136;16.886;2023-04-29T09:40:36;19.30;99.90
6956;DHT22;50345;51.136;16.886;2023-04-29T09:43:02;19.20;99.90
6956;DHT22;50345;51.136;16.886;2023-04-29T09:45:38;18.90;99.90
6956;DHT22;50345;51.136;16.886;2023-04-29T09:48:07;18.50;99.90
6956;DHT22;50345;51.136;16.886;2023-04-29T09:50:39;18.30;99.90
6956;DHT22;50345;51.136;16.886;2023-04-29T09:53:07;18.40;99.90
6956;DHT22;50345;51.136;16.886;2023-04-29T09:55:57;18.50;99.90
6956;DHT22;50345;51.136;16.886;2023-04-29T09:58:33;18.80;99.90
6956;DHT22;50345;51.136;16.886;2023-04-29T10:01:02;19.00;99.90
6956;DHT22;50345;51.136;16.886;2023-04-29T10:03:33;19.30;99.90
6956;DHT22;50345;51.136;16.886;2023-04-29T10:06:00;19.60;99.90
6956;DHT22;50345;51.136;16.886;2023-04-29T10:08:27;20.10;99.90
6956;DHT22;50345;51.136;16.886;2023-04-29T10:10:54;20.20;99.90
6956;DHT22;50345;51.136;16.886;2023-04-29T10:13:24;20.10;99.90
6956;DHT22;50345;51.136;16.886;2023-04-29T10:15:57;20.10;99.90
6956;DHT22;50345;51.136;16.886;2023-04-29T10:18:35;19.80;99.90
6956;DHT22;50345;51.136;16.886;2023-04-29T10:21:07;19.70;99.90
6956;DHT22;50345;51.136;16.886;2023-04-29T10:23:36;19.70;99.90
6956;DHT22;50345;51.136;16.886;2023-04-29T10:26:02;19.80;99.90
6956;DHT22;50345;51.136;16.886;2023-04-29T10:28:31;19.90;99.90
6956;DHT22;50345;51.136;16.886;2023-04-29T10:31:00;20.30;99.90
6956;DHT22;50345;51.136;16.886;2023-04-29T10:33:30;21.20;99.90
6956;DHT22;50345;51.136;16.886;2023-04-29T10:35:57;21.50;99.90
6956;DHT22;50345;51.136;16.886;2023-04-29T10:38:35;22.20;98.00
6956;DHT22;50345;51.136;16.886;2023-04-29T10:41:05;23.60;97.80
6956;DHT22;50345;51.136;16.886;2023-04-29T10:43:33;24.00;92.20
6956;DHT22;50345;51.136;16.886;2023-04-29T10:46:19;25.90;71.10
6956;DHT22;50345;51.136;16.886;2023-04-29T10:48:46;25.90;69.50
6956;DHT22;50345;51.136;16.886;2023-04-29T10:51:11;25.80;67.30
6956;DHT22;50345;51.136;16.886;2023-04-29T10:54:13;28.10;57.40
6956;DHT22;50345;51.136;16.886;2023-04-29T10:56:50;29.30;54.40
6956;DHT22;50345;51.136;16.886;2023-04-29T11:02:02;31.50;46.90
6956;DHT22;50345;51.136;16.886;2023-04-29T11:04:30;32.80;44.00
6956;DHT22;50345;51.136;16.886;2023-04-29T11:06:56;32.80;45.00
6956;DHT22;50345;51.136;16.886;2023-04-29T11:09:26;31.90;43.80
6956;DHT22;50345;51.136;16.886;2023-04-29T11:14:51;31.50;44.70
6956;DHT22;50345;51.136;16.886;2023-04-29T11:17:17;31.60;43.30
6956;DHT22;50345;51.136;16.886;2023-04-29T11:19:46;31.00;43.90
6956;DHT22;50345;51.136;16.886;2023-04-29T11:25:05;30.30;44.20
6956;DHT22;50345;51.136;16.886;2023-04-29T11:27:38;29.90;44.90
6956;DHT22;50345;51.136;16.886;2023-04-29T11:30:05;30.70;45.10
6956;DHT22;50345;51.136;16.886;2023-04-29T11:32:34;31.30;42.40
6956;DHT22;50345;51.136;16.886;2023-04-29T11:35:10;32.10;39.80
6956;DHT22;50345;51.136;16.886;2023-04-29T11:37:37;32.00;41.20
6956;DHT22;50345;51.136;16.886;2023-04-29T11:40:04;30.90;41.80
6956;DHT22;50345;51.136;16.886;2023-04-29T11:42:54;29.40;43.50
6956;DHT22;50345;51.136;16.886;2023-04-29T11:45:19;27.40;46.00
6956;DHT22;50345;51.136;16.886;2023-04-29T11:47:45;25.50;49.20
6956;DHT22;50345;51.136;16.886;2023-04-29T11:50:12;24.20;52.80
6956;DHT22;50345;51.136;16.886;2023-04-29T11:52:40;23.50;54.20
6956;DHT22;50345;51.136;16.886;2023-04-29T11:55:09;23.00;55.60
6956;DHT22;50345;51.136;16.886;2023-04-29T11:57:36;22.10;58.10
6956;DHT22;50345;51.136;16.886;2023-04-29T12:00:02;21.60;60.30
6956;DHT22;50345;51.136;16.886;2023-04-29T12:02:33;20.80;64.10
6956;DHT22;50345;51.136;16.886;2023-04-29T12:05:02;20.20;73.30
6956;DHT22;50345;51.136;16.886;2023-04-29T12:07:30;20.00;77.20
6956;DHT22;50345;51.136;16.886;2023-04-29T12:09:55;19.50;91.70
6956;DHT22;50345;51.136;16.886;2023-04-29T12:12:22;19.20;99.90
6956;DHT22;50345;51.136;16.886;2023-04-29T12:14:48;19.10;99.90
6956;DHT22;50345;51.136;16.886;2023-04-29T12:17:14;19.00;99.90
6956;DHT22;50345;51.136;16.886;2023-04-29T12:19:41;19.20;99.90
6956;DHT22;50345;51.136;16.886;2023-04-29T12:22:08;20.40;99.90
6956;DHT22;50345;51.136;16.886;2023-04-29T12:24:38;21.20;99.90
6956;DHT22;50345;51.136;16.886;2023-04-29T12:27:08;22.40;99.90
6956;DHT22;50345;51.136;16.886;2023-04-29T12:29:38;22.50;99.90
6956;DHT22;50345;51.136;16.886;2023-04-29T12:32:05;23.40;98.80
6956;DHT22;50345;51.136;16.886;2023-04-29T12:34:31;24.00;94.00
6956;DHT22;50345;51.136;16.886;2023-04-29T12:37:01;25.50;86.20
6956;DHT22;50345;51.136;16.886;2023-04-29T12:39:27;26.60;75.50
6956;DHT22;50345;51.136;16.886;2023-04-29T12:42:00;27.90;64.20
6956;DHT22;50345;51.136;16.886;2023-04-29T12:44:37;28.60;60.80
6956;DHT22;50345;51.136;16.886;2023-04-29T12:47:10;28.80;59.40
6956;DHT22;50345;51.136;16.886;2023-04-29T12:49:36;30.00;56.00
6956;DHT22;50345;51.136;16.886;2023-04-29T12:52:03;30.50;51.90
6956;DHT22;50345;51.136;16.886;2023-04-29T12:54:29;31.30;45.10
6956;DHT22;50345;51.136;16.886;2023-04-29T12:56:55;31.30;46.80
6956;DHT22;50345;51.136;16.886;2023-04-29T12:59:20;32.30;45.50
6956;DHT22;50345;51.136;16.886;2023-04-29T13:01:46;33.20;43.10
6956;DHT22;50345;51.136;16.886;2023-04-29T13:04:11;33.60;41.30
6956;DHT22;50345;51.136;16.886;2023-04-29T13:06:37;34.00;40.90
6956;DHT22;50345;51.136;16.886;2023-04-29T13:09:07;34.20;40.50
6956;DHT22;50345;51.136;16.886;2023-04-29T13:11:39;34.90;38.10
6956;DHT22;50345;51.136;16.886;2023-04-29T13:14:05;34.80;38.70
6956;DHT22;50345;51.136;16.886;2023-04-29T13:16:34;33.90;39.00
6956;DHT22;50345;51.136;16.886;2023-04-29T13:19:00;32.20;40.40
6956;DHT22;50345;51.136;16.886;2023-04-29T13:21:26;30.50;42.10
6956;DHT22;50345;51.136;16.886;2023-04-29T13:23:55;27.60;46.30
6956;DHT22;50345;51.136;16.886;2023-04-29T13:26:20;26.30;49.20
6956;DHT22;50345;51.136;16.886;2023-04-29T13:28:48;25.70;50.60
6956;DHT22;50345;51.136;16.886;2023-04-29T13:31:13;24.60;53.70
6956;DHT22;50345;51.136;16.886;2023-04-29T13:33:39;24.50;54.10
6956;DHT22;50345;51.136;16.886;2023-04-29T13:36:04;23.90;55.50
6956;DHT22;50345;51.136;16.886;2023-04-29T13:38:30;23.20;57.90
6956;DHT22;50345;51.136;16.886;2023-04-29T13:40:56;23.20;58.10
6956;DHT22;50345;51.136;16.886;2023-04-29T13:43:22;22.80;58.70
6956;DHT22;50345;51.136;16.886;2023-04-29T13:45:47;22.60;59.90
6956;DHT22;50345;51.136;16.886;2023-04-29T13:48:13;22.20;62.60
6956;DHT22;50345;51.136;16.886;2023-04-29T13:50:39;21.80;65.10
6956;DHT22;50345;51.136;16.886;2023-04-29T13:53:05;21.60;69.80
6956;DHT22;50345;51.136;16.886;2023-04-29T13:55:32;21.50;71.40
6956;DHT22;50345;51.136;16.886;2023-04-29T13:57:59;21.50;73.10
6956;DHT22;50345;51.136;16.886;2023-04-29T14:00:25;21.90;72.80
6956;DHT22;50345;51.136;16.886;2023-04-29T14:02:51;21.80;73.00
6956;DHT22;50345;51.136;16.886;2023-04-29T14:05:17;22.00;75.30
6956;DHT22;50345;51.136;16.886;2023-04-29T14:07:42;23.20;72.90
6956;DHT22;50345;51.136;16.886;2023-04-29T14:10:08;23.40;71.80
6956;DHT22;50345;51.136;16.886;2023-04-29T14:12:34;24.20;68.30
6956;DHT22;50345;51.136;16.886;2023-04-29T14:14:59;24.90;65.30
6956;DHT22;50345;51.136;16.886;2023-04-29T14:17:25;25.80;61.20
6956;DHT22;50345;51.136;16.886;2023-04-29T14:19:51;26.80;57.50
6956;DHT22;50345;51.136;16.886;2023-04-29T14:22:17;27.30;55.40
6956;DHT22;50345;51.136;16.886;2023-04-29T14:24:42;27.40;54.80
6956;DHT22;50345;51.136;16.886;2023-04-29T14:27:08;27.00;54.50
6956;DHT22;50345;51.136;16.886;2023-04-29T14:29:33;26.00;55.70
6956;DHT22;50345;51.136;16.886;2023-04-29T14:31:59;24.90;57.50
6956;DHT22;50345;51.136;16.886;2023-04-29T14:34:25;23.90;59.90
6956;DHT22;50345;51.136;16.886;2023-04-29T14:36:50;22.90;62.30
6956;DHT22;50345;51.136;16.886;2023-04-29T14:39:16;22.20;65.80
6956;DHT22;50345;51.136;16.886;2023-04-29T14:41:42;21.60;69.90
6956;DHT22;50345;51.136;16.886;2023-04-29T14:44:08;20.50;84.80
6956;DHT22;50345;51.136;16.886;2023-04-29T14:46:34;20.50;85.50
6956;DHT22;50345;51.136;16.886;2023-04-29T14:48:59;20.20;98.00
6956;DHT22;50345;51.136;16.886;2023-04-29T14:51:25;20.30;99.90
6956;DHT22;50345;51.136;16.886;2023-04-29T14:53:51;20.80;99.90
6956;DHT22;50345;51.136;16.886;2023-04-29T14:56:17;21.00;99.90
6956;DHT22;50345;51.136;16.886;2023-04-29T14:58:43;20.70;99.90
6956;DHT22;50345;51.136;16.886;2023-04-29T15:01:09;20.50;99.90
6956;DHT22;50345;51.136;16.886;2023-04-29T15:03:34;20.00;99.90
6956;DHT22;50345;51.136;16.886;2023-04-29T15:08:28;18.20;99.90
6956;DHT22;50345;51.136;16.886;2023-04-29T15:10:54;18.20;99.90
6956;DHT22;50345;51.136;16.886;2023-04-29T15:13:20;17.70;99.90
6956;DHT22;50345;51.136;16.886;2023-04-29T15:15:46;17.30;99.90
6956;DHT22;50345;51.136;16.886;2023-04-29T15:18:12;17.30;99.90
6956;DHT22;50345;51.136;16.886;2023-04-29T15:20:38;17.20;99.90
6956;DHT22;50345;51.136;16.886;2023-04-29T15:23:04;17.20;99.90
6956;DHT22;50345;51.136;16.886;2023-04-29T15:25:30;17.30;99.90
6956;DHT22;50345;51.136;16.886;2023-04-29T15:27:57;17.30;99.90
6956;DHT22;50345;51.136;16.886;2023-04-29T15:30:24;17.30;99.90
6956;DHT22;50345;51.136;16.886;2023-04-29T15:32:51;17.40;99.90
6956;DHT22;50345;51.136;16.886;2023-04-29T15:35:16;17.30;99.90
6956;DHT22;50345;51.136;16.886;2023-04-29T15:37:42;17.30;99.90
6956;DHT22;50345;51.136;16.886;2023-04-29T15:40:08;17.30;99.90
6956;DHT22;50345;51.136;16.886;2023-04-29T15:42:33;17.20;99.90
6956;DHT22;50345;51.136;16.886;2023-04-29T15:44:59;17.20;99.90
6956;DHT22;50345;51.136;16.886;2023-04-29T15:47:24;17.10;99.90
6956;DHT22;50345;51.136;16.886;2023-04-29T15:49:50;17.00;99.90
6956;DHT22;50345;51.136;16.886;2023-04-29T15:52:16;17.00;99.90
6956;DHT22;50345;51.136;16.886;2023-04-29T15:54:42;17.10;99.90
6956;DHT22;50345;51.136;16.886;2023-04-29T15:57:07;17.10;99.90
6956;DHT22;50345;51.136;16.886;2023-04-29T15:59:33;17.20;99.90